createdAt,value
2023-01-21T00:00:58.871Z,14.60
2023-01-21T00:04:00.508Z,14.10
2023-01-21T00:07:02.312Z,14.50
2023-01-21T00:10:04.375Z,14.85
2023-01-21T00:13:05.994Z,14.25
2023-01-21T00:16:08.301Z,14.87
2023-01-21T00:19:09.965Z,14.10
2023-01-21T00:22:11.757Z,16.02
2023-01-21T00:25:13.486Z,15.70
2023-01-21T00:28:15.111Z,15.35
2023-01-21T00:31:17.094Z,15.55
2023-01-21T00:34:18.833Z,15.23
2023-01-21T00:37:20.508Z,14.20
2023-01-21T00:40:22.357Z,14.77
2023-01-21T00:43:23.964Z,16.17
2023-01-21T00:46:25.990Z,15.82
2023-01-21T00:49:28.979Z,16.37
2023-01-21T00:52:31.008Z,16.83
2023-01-21T00:55:32.648Z,17.15
2023-01-21T00:58:35.192Z,17.45
2023-01-21T01:01:38.610Z,17.40
2023-01-21T01:04:40.405Z,17.77
2023-01-21T01:07:46.234Z,17.50
2023-01-21T01:10:48.366Z,17.90
2023-01-21T01:13:50.099Z,17.87
2023-01-21T01:16:51.706Z,17.95
2023-01-21T01:19:53.479Z,18.87
2023-01-21T01:22:55.098Z,17.77
2023-01-21T01:26:02.362Z,18.52
2023-01-21T01:29:05.289Z,18.25
2023-01-21T01:32:06.955Z,17.90
2023-01-21T01:35:09.072Z,18.52
2023-01-21T01:38:10.696Z,17.75
2023-01-21T01:41:19.362Z,17.35
2023-01-21T01:44:48.930Z,17.33
2023-01-21T01:48:00.004Z,16.20
2023-01-21T01:51:04.541Z,17.87
2023-01-21T01:54:07.934Z,17.45
2023-01-21T01:57:13.216Z,16.85
2023-01-21T02:00:16.009Z,16.42
2023-01-21T02:03:37.225Z,17.17
2023-01-21T02:06:40.906Z,17.65
2023-01-21T02:09:42.691Z,17.95
2023-01-21T02:12:44.689Z,17.15
2023-01-21T02:16:14.452Z,17.27
2023-01-21T02:19:25.195Z,16.65
2023-01-21T02:22:51.838Z,16.23
2023-01-21T02:26:35.532Z,16.00
2023-01-21T02:30:07.133Z,16.80
2023-01-21T02:33:18.026Z,16.42
2023-01-21T02:36:31.482Z,16.70
2023-01-21T02:39:45.376Z,16.17
2023-01-21T02:42:51.081Z,16.87
2023-01-21T02:46:21.287Z,15.10
2023-01-21T02:49:31.366Z,15.82
2023-01-21T02:52:33.135Z,15.32
2023-01-21T02:55:38.873Z,15.20
2023-01-21T02:58:47.575Z,15.38
2023-01-21T03:02:04.324Z,16.77
2023-01-21T03:05:11.983Z,16.35
2023-01-21T03:08:28.088Z,17.80
2023-01-21T03:11:29.909Z,16.48
2023-01-21T03:15:02.146Z,16.95
2023-01-21T03:18:34.330Z,16.85
2023-01-21T03:21:36.716Z,16.85
2023-01-21T03:24:42.425Z,16.37
2023-01-21T03:27:47.670Z,17.23
2023-01-21T03:31:24.233Z,16.42
2023-01-21T03:34:29.549Z,16.70
2023-01-21T03:37:38.158Z,16.80
2023-01-21T03:40:46.497Z,18.17
2023-01-21T03:43:48.743Z,16.92
2023-01-21T03:47:09.179Z,17.25
2023-01-21T03:50:20.299Z,18.02
2023-01-21T03:53:22.331Z,17.42
2023-01-21T03:56:26.483Z,17.62
2023-01-21T03:59:28.121Z,16.77
2023-01-21T04:02:29.930Z,17.15
2023-01-21T04:05:31.588Z,17.02
2023-01-21T04:08:33.255Z,16.65
2023-01-21T04:11:34.899Z,17.12
2023-01-21T04:14:37.016Z,16.80
2023-01-21T04:17:38.888Z,16.40
2023-01-21T04:20:40.585Z,26.75
2023-01-21T04:23:42.253Z,27.60
2023-01-21T04:26:43.943Z,33.83
2023-01-21T04:29:45.580Z,29.83
2023-01-21T04:32:47.249Z,22.58
2023-01-21T04:35:48.904Z,19.12
2023-01-21T04:38:52.214Z,18.80
2023-01-21T04:41:53.912Z,16.58
2023-01-21T04:44:55.522Z,16.42
2023-01-21T04:47:57.269Z,15.90
2023-01-21T04:50:59.151Z,17.62
2023-01-21T04:54:00.855Z,15.80
2023-01-21T04:57:02.609Z,16.37
2023-01-21T05:00:07.026Z,16.17
2023-01-21T05:03:08.707Z,17.00
2023-01-21T05:06:10.665Z,16.92
2023-01-21T05:09:12.425Z,16.50
2023-01-21T05:12:14.112Z,16.50
2023-01-21T05:15:16.010Z,17.75
2023-01-21T05:18:17.676Z,22.17
2023-01-21T05:21:19.364Z,28.75
2023-01-21T05:24:21.133Z,31.80
2023-01-21T05:27:22.943Z,25.05
2023-01-21T05:30:24.858Z,25.92
2023-01-21T05:33:33.392Z,32.00
2023-01-21T05:36:37.894Z,22.50
2023-01-21T05:39:39.637Z,18.70
2023-01-21T05:42:41.360Z,17.73
2023-01-21T05:45:43.000Z,18.85
2023-01-21T05:48:45.059Z,18.23
2023-01-21T05:51:46.735Z,19.70
2023-01-21T05:55:01.054Z,20.05
2023-01-21T05:58:04.368Z,18.45
2023-01-21T06:01:06.051Z,17.95
2023-01-21T06:04:07.828Z,18.95
2023-01-21T06:07:09.499Z,20.10
2023-01-21T06:10:11.523Z,19.35
2023-01-21T06:13:14.968Z,19.20
2023-01-21T06:16:16.780Z,19.20
2023-01-21T06:19:18.484Z,20.58
2023-01-21T06:22:20.493Z,20.23
2023-01-21T06:25:22.295Z,18.65
2023-01-21T06:28:24.043Z,18.17
2023-01-21T06:31:26.265Z,18.90
2023-01-21T06:34:28.030Z,19.45
2023-01-21T06:37:30.341Z,19.65
2023-01-21T06:40:32.060Z,20.02
2023-01-21T06:43:33.769Z,18.70
2023-01-21T06:46:35.590Z,19.85
2023-01-21T06:49:37.295Z,19.52
2023-01-21T06:52:42.542Z,22.75
2023-01-21T06:55:44.278Z,30.12
2023-01-21T06:58:45.995Z,27.83
2023-01-21T07:01:47.693Z,23.98
2023-01-21T07:04:51.405Z,22.80
2023-01-21T07:07:57.834Z,22.65
2023-01-21T07:10:59.623Z,21.33
2023-01-21T07:14:01.330Z,21.30
2023-01-21T07:17:02.992Z,22.37
2023-01-21T07:20:05.613Z,21.02
2023-01-21T07:23:07.269Z,20.45
2023-01-21T07:26:09.301Z,20.80
2023-01-21T07:29:11.011Z,21.58
2023-01-21T07:32:12.685Z,22.65
2023-01-21T07:35:14.759Z,21.00
2023-01-21T07:38:16.891Z,23.08
2023-01-21T07:41:18.530Z,28.83
2023-01-21T07:44:20.159Z,25.52
2023-01-21T07:47:21.783Z,24.85
2023-01-21T07:50:23.428Z,29.63
2023-01-21T07:53:25.101Z,26.62
2023-01-21T07:56:27.254Z,22.42
2023-01-21T07:59:28.867Z,21.50
2023-01-21T08:02:30.626Z,25.80
2023-01-21T08:05:32.959Z,24.45
2023-01-21T08:08:34.688Z,25.23
2023-01-21T08:11:36.603Z,22.17
2023-01-21T08:14:39.093Z,21.85
2023-01-21T08:17:43.089Z,22.37
2023-01-21T08:20:44.910Z,23.50
2023-01-21T08:23:46.971Z,20.40
2023-01-21T08:26:49.178Z,22.90
2023-01-21T08:29:50.824Z,23.12
2023-01-21T08:32:52.508Z,19.90
2023-01-21T08:35:59.893Z,19.30
2023-01-21T08:39:02.093Z,17.75
2023-01-21T08:42:03.990Z,19.65
2023-01-21T08:45:06.468Z,15.68
2023-01-21T08:48:08.126Z,15.25
2023-01-21T08:51:09.868Z,14.90
2023-01-21T08:54:11.506Z,16.02
2023-01-21T08:57:13.217Z,15.32
2023-01-21T09:00:15.401Z,12.37
2023-01-21T09:03:17.860Z,11.93
2023-01-21T09:06:19.478Z,12.32
2023-01-21T09:09:21.113Z,13.90
2023-01-21T09:12:22.770Z,12.77
2023-01-21T09:15:24.397Z,12.73
2023-01-21T09:18:26.191Z,11.57
2023-01-21T09:21:29.482Z,9.93
2023-01-21T09:24:31.915Z,10.13
2023-01-21T09:27:33.529Z,10.38
2023-01-21T09:30:35.159Z,9.43
2023-01-21T09:33:38.700Z,10.80
2023-01-21T09:36:40.432Z,9.07
2023-01-21T09:39:42.141Z,9.00
2023-01-21T09:42:44.046Z,8.07
2023-01-21T09:45:47.969Z,7.72
2023-01-21T09:48:50.721Z,7.45
2023-01-21T09:52:27.622Z,7.03
2023-01-21T09:55:46.856Z,7.25
2023-01-21T09:58:57.519Z,6.40
2023-01-21T10:02:01.667Z,5.57
2023-01-21T10:05:21.478Z,6.80
2023-01-21T10:08:41.823Z,5.82
2023-01-21T10:12:01.795Z,5.82
2023-01-21T10:15:06.951Z,5.75
2023-01-21T10:18:15.307Z,4.00
2023-01-21T10:21:44.235Z,5.62
2023-01-21T10:24:53.763Z,4.10
2023-01-21T10:27:59.757Z,3.75
2023-01-21T10:31:49.442Z,4.28
2023-01-21T10:34:53.301Z,4.95
2023-01-21T10:38:07.105Z,4.12
2023-01-21T10:41:30.157Z,4.12
2023-01-21T10:44:52.571Z,3.55
2023-01-21T10:48:25.541Z,3.60
2023-01-21T10:51:48.544Z,3.33
2023-01-21T10:55:15.580Z,4.35
2023-01-21T10:58:37.157Z,3.33
2023-01-21T11:01:42.199Z,5.95
2023-01-21T11:04:44.586Z,4.47
2023-01-21T11:07:48.240Z,4.40
2023-01-21T11:10:55.287Z,4.93
2023-01-21T11:13:57.055Z,5.53
2023-01-21T11:16:58.741Z,5.47
2023-01-21T11:20:02.956Z,6.60
2023-01-21T11:23:06.161Z,5.45
2023-01-21T11:26:35.701Z,5.60
2023-01-21T11:29:41.368Z,6.70
2023-01-21T11:32:43.087Z,5.18
2023-01-21T11:35:45.193Z,4.82
2023-01-21T11:38:59.849Z,5.05
2023-01-21T11:42:08.187Z,6.20
2023-01-21T11:45:28.638Z,7.10
2023-01-21T11:48:30.355Z,7.87
2023-01-21T11:51:32.761Z,8.02
2023-01-21T11:54:40.196Z,9.88
2023-01-21T11:57:42.157Z,10.38
2023-01-21T12:00:47.024Z,10.77
2023-01-21T12:03:53.355Z,8.52
2023-01-21T12:06:58.704Z,9.07
2023-01-21T12:10:19.879Z,7.93
2023-01-21T12:13:43.026Z,10.18
2023-01-21T12:16:50.640Z,6.95
2023-01-21T12:20:03.127Z,7.45
2023-01-21T12:23:25.762Z,7.40
2023-01-21T12:26:47.774Z,8.45
2023-01-21T12:30:16.934Z,8.18
2023-01-21T12:33:21.467Z,9.15
2023-01-21T12:36:27.956Z,8.23
2023-01-21T12:39:34.284Z,9.27
2023-01-21T12:42:41.148Z,8.70
2023-01-21T12:45:55.385Z,8.00
2023-01-21T12:49:06.501Z,7.45
2023-01-21T12:52:34.839Z,7.53
2023-01-21T12:55:58.263Z,6.35
2023-01-21T12:59:08.933Z,7.32
2023-01-21T13:02:32.266Z,8.10
2023-01-21T13:05:43.245Z,7.75
2023-01-21T13:09:07.883Z,7.85
2023-01-21T13:12:18.792Z,7.62
2023-01-21T13:15:24.024Z,11.88
2023-01-21T13:18:51.504Z,10.90
2023-01-21T13:22:34.548Z,11.35
2023-01-21T13:25:59.700Z,15.00
2023-01-21T13:29:39.547Z,13.57
2023-01-21T13:32:59.717Z,12.68
2023-01-21T13:36:35.080Z,9.13
2023-01-21T13:39:44.211Z,17.48
2023-01-21T13:43:25.241Z,11.90
2023-01-21T13:46:33.242Z,13.32
2023-01-21T13:49:47.001Z,11.55
2023-01-21T13:53:00.501Z,11.43
2023-01-21T13:56:26.757Z,9.43
2023-01-21T13:59:38.891Z,11.23
2023-01-21T14:03:22.253Z,11.52
2023-01-21T14:06:27.143Z,9.45
2023-01-21T14:10:21.016Z,13.13
2023-01-21T14:13:22.648Z,9.02
2023-01-21T14:16:26.840Z,8.25
2023-01-21T14:19:31.163Z,9.13
2023-01-21T14:22:35.691Z,9.57
2023-01-21T14:25:55.343Z,12.70
2023-01-21T14:29:09.706Z,12.10
2023-01-21T14:32:21.541Z,14.35
2023-01-21T14:35:32.872Z,13.32
2023-01-21T14:39:17.341Z,10.52
2023-01-21T14:42:26.362Z,10.35
2023-01-21T14:45:52.423Z,10.57
2023-01-21T14:49:08.667Z,12.82
2023-01-21T14:52:19.163Z,13.45
2023-01-21T14:55:31.372Z,11.82
2023-01-21T14:58:36.062Z,16.70
2023-01-21T15:01:45.104Z,21.75
2023-01-21T15:05:00.530Z,15.75
2023-01-21T15:08:25.804Z,24.83
2023-01-21T15:11:38.125Z,15.65
2023-01-21T15:14:42.460Z,14.52
2023-01-21T15:17:53.742Z,15.18
2023-01-21T15:21:00.808Z,13.43
2023-01-21T15:24:27.334Z,14.10
2023-01-21T15:27:32.635Z,13.95
2023-01-21T15:30:54.073Z,13.25
2023-01-21T15:34:11.878Z,12.15
2023-01-21T15:37:21.052Z,11.73
2023-01-21T15:40:28.044Z,11.27
2023-01-21T15:43:40.794Z,9.70
2023-01-21T15:46:45.643Z,10.95
2023-01-21T15:49:54.337Z,8.93
2023-01-21T15:53:14.560Z,9.00
2023-01-21T15:56:53.819Z,7.82
2023-01-21T16:00:07.317Z,8.25
2023-01-21T16:03:35.808Z,7.47
2023-01-21T16:07:10.399Z,6.97
2023-01-21T16:10:27.621Z,7.82
2023-01-21T16:14:00.149Z,6.75
2023-01-21T16:17:23.033Z,7.68
2023-01-21T16:20:25.060Z,8.68
2023-01-21T16:23:35.671Z,7.12
2023-01-21T16:26:39.298Z,5.93
2023-01-21T16:29:41.447Z,6.78
2023-01-21T16:32:43.971Z,5.87
2023-01-21T16:35:50.396Z,6.43
2023-01-21T16:38:53.254Z,5.82
2023-01-21T16:42:04.117Z,15.23
2023-01-21T16:45:19.576Z,10.98
2023-01-21T16:48:25.336Z,9.07
2023-01-21T16:51:32.723Z,7.72
2023-01-21T16:54:35.163Z,15.68
2023-01-21T16:57:37.593Z,12.93
2023-01-21T17:00:39.775Z,11.70
2023-01-21T17:03:43.353Z,9.95
2023-01-21T17:06:46.341Z,8.43
2023-01-21T17:09:59.433Z,6.62
2023-01-21T17:13:08.530Z,5.93
2023-01-21T17:16:24.099Z,6.90
2023-01-21T17:19:33.308Z,5.93
2023-01-21T17:22:36.194Z,6.37
2023-01-21T17:25:38.439Z,6.65
2023-01-21T17:28:44.946Z,5.32
2023-01-21T17:31:55.821Z,5.93
2023-01-21T17:35:10.282Z,5.10
2023-01-21T17:38:29.295Z,5.80
2023-01-21T17:41:35.026Z,5.10
2023-01-21T17:44:37.565Z,5.68
2023-01-21T17:48:03.236Z,6.25
2023-01-21T17:51:07.230Z,5.82
2023-01-21T17:54:29.691Z,5.28
2023-01-21T17:57:36.476Z,4.50
2023-01-21T18:00:45.415Z,6.07
2023-01-21T18:03:48.175Z,6.18
2023-01-21T18:06:52.252Z,6.03
2023-01-21T18:09:55.848Z,6.03
2023-01-21T18:12:59.312Z,6.30
2023-01-21T18:16:01.429Z,6.95
2023-01-21T18:19:03.610Z,6.35
2023-01-21T18:22:07.119Z,7.00
2023-01-21T18:25:11.257Z,6.97
2023-01-21T18:28:19.420Z,6.22
2023-01-21T18:31:23.064Z,7.00
2023-01-21T18:34:25.748Z,7.47
2023-01-21T18:37:27.762Z,7.37
2023-01-21T18:40:30.056Z,6.55
2023-01-21T18:43:32.791Z,6.80
2023-01-21T18:46:43.013Z,6.70
2023-01-21T18:49:48.629Z,6.70
2023-01-21T18:52:51.205Z,7.03
2023-01-21T18:55:54.932Z,6.10
2023-01-21T18:58:57.716Z,6.93
2023-01-21T19:02:00.246Z,7.22
2023-01-21T19:05:04.176Z,9.13
2023-01-21T19:08:16.943Z,7.53
2023-01-21T19:11:19.536Z,8.15
2023-01-21T19:14:21.943Z,7.82
2023-01-21T19:17:30.347Z,8.25
2023-01-21T19:20:32.581Z,8.75
2023-01-21T19:23:38.272Z,7.60
2023-01-21T19:26:40.600Z,7.55
2023-01-21T19:29:42.759Z,8.25
2023-01-21T19:32:44.831Z,7.60
2023-01-21T19:36:12.468Z,7.53
2023-01-21T19:39:19.902Z,8.05
2023-01-21T19:45:28.689Z,7.25
2023-01-21T19:48:30.946Z,7.37
2023-01-21T19:51:33.295Z,7.12
2023-01-21T19:54:35.255Z,6.75
2023-01-21T19:57:38.574Z,6.75
2023-01-21T20:00:41.403Z,7.40
2023-01-21T20:03:58.755Z,6.90
2023-01-21T20:07:02.650Z,8.60
2023-01-21T20:10:15.438Z,8.48
2023-01-21T20:13:17.843Z,7.40
2023-01-21T20:16:23.957Z,7.35
2023-01-21T20:19:26.747Z,8.30
2023-01-21T20:22:29.126Z,8.00
2023-01-21T20:25:39.386Z,7.65
2023-01-21T20:28:47.220Z,7.78
2023-01-21T20:31:52.199Z,6.78
2023-01-21T20:34:54.901Z,7.97
2023-01-21T20:38:00.218Z,7.37
2023-01-21T20:41:04.239Z,7.10
2023-01-21T20:44:06.355Z,7.87
2023-01-21T20:47:11.266Z,7.37
2023-01-21T20:50:22.044Z,6.95
2023-01-21T20:53:24.711Z,6.12
2023-01-21T20:56:31.992Z,6.97
2023-01-21T20:59:35.060Z,7.43
2023-01-21T21:02:37.560Z,7.40
2023-01-21T21:05:40.702Z,7.75
2023-01-21T21:08:45.087Z,7.75
2023-01-21T21:11:47.271Z,7.62
2023-01-21T21:14:49.546Z,7.10
2023-01-21T21:17:51.463Z,6.85
2023-01-21T21:20:53.331Z,6.32
2023-01-21T21:23:55.458Z,6.97
2023-01-21T21:26:57.628Z,6.68
2023-01-21T21:29:59.791Z,6.22
2023-01-21T21:33:03.412Z,6.97
2023-01-21T21:36:05.597Z,6.78
2023-01-21T21:39:08.006Z,6.65
2023-01-21T21:42:31.141Z,6.87
2023-01-21T21:45:33.442Z,6.57
2023-01-21T21:48:38.317Z,6.40
2023-01-21T21:51:40.871Z,6.15
2023-01-21T21:54:43.082Z,6.25
2023-01-21T21:57:45.306Z,5.57
2023-01-21T22:00:47.270Z,6.43
2023-01-21T22:03:49.600Z,6.32
2023-01-21T22:06:51.630Z,5.82
2023-01-21T22:09:53.522Z,5.62
2023-01-21T22:12:55.287Z,5.95
2023-01-21T22:15:59.185Z,5.87
2023-01-21T22:19:01.864Z,5.60
2023-01-21T22:22:03.731Z,5.80
2023-01-21T22:25:06.940Z,5.68
2023-01-21T22:28:08.587Z,5.87
2023-01-21T22:31:17.075Z,5.53
2023-01-21T22:34:18.773Z,5.22
2023-01-21T22:37:20.431Z,5.53
2023-01-21T22:40:22.118Z,5.68
2023-01-21T22:43:23.829Z,5.37
2023-01-21T22:46:29.438Z,5.25
2023-01-21T22:49:31.178Z,5.62
2023-01-21T22:52:32.835Z,5.40
2023-01-21T22:55:36.439Z,5.03
2023-01-21T22:58:38.129Z,5.35
2023-01-21T23:01:40.140Z,5.05
2023-01-21T23:04:41.977Z,5.20
2023-01-21T23:07:43.604Z,5.20
2023-01-21T23:10:46.818Z,4.93
2023-01-21T23:13:53.436Z,4.57
2023-01-21T23:16:55.212Z,4.90
2023-01-21T23:19:56.902Z,4.68
2023-01-21T23:22:58.860Z,5.12
2023-01-21T23:26:02.086Z,4.97
2023-01-21T23:29:04.045Z,4.97
2023-01-21T23:32:05.937Z,5.22
2023-01-21T23:35:08.883Z,5.22
2023-01-21T23:38:10.532Z,5.30
2023-01-21T23:41:16.896Z,5.50
2023-01-21T23:44:18.692Z,5.20
2023-01-21T23:47:20.405Z,5.50
2023-01-21T23:50:22.222Z,5.30
2023-01-21T23:53:23.865Z,4.97
2023-01-21T23:56:26.221Z,5.10
2023-01-21T23:59:27.895Z,5.78
